createdAt,value
2018-04-14T00:00:14.472Z,25.27
2018-04-14T00:00:48.391Z,19.00
2018-04-14T00:01:22.257Z,20.67
2018-04-14T00:01:56.162Z,17.50
2018-04-14T00:02:30.172Z,17.33
2018-04-14T00:03:04.207Z,17.90
2018-04-14T00:03:38.103Z,20.95
2018-04-14T00:04:11.971Z,19.42
2018-04-14T00:04:45.830Z,19.02
2018-04-14T00:06:00.184Z,25.12
2018-04-14T00:06:34.056Z,19.52
2018-04-14T00:07:07.919Z,21.08
2018-04-14T00:07:41.982Z,22.10
2018-04-14T00:08:15.866Z,23.02
2018-04-14T00:08:49.861Z,22.27
2018-04-14T00:09:23.762Z,24.27
2018-04-14T00:09:57.864Z,22.10
2018-04-14T00:10:31.750Z,22.05
2018-04-14T00:11:05.640Z,27.13
2018-04-14T00:11:39.547Z,25.77
2018-04-14T00:12:13.410Z,27.83
2018-04-14T00:12:47.570Z,29.40
2018-04-14T00:13:21.443Z,24.70
2018-04-14T00:13:55.342Z,26.92
2018-04-14T00:14:29.206Z,28.15
2018-04-14T00:15:03.080Z,28.75
2018-04-14T00:15:36.947Z,27.23
2018-04-14T00:16:10.812Z,32.72
2018-04-14T00:16:44.699Z,27.23
2018-04-14T00:17:18.624Z,24.63
2018-04-14T00:17:52.495Z,31.60
2018-04-14T00:18:26.363Z,34.65
2018-04-14T00:19:00.236Z,30.62
2018-04-14T00:19:34.092Z,32.97
2018-04-14T00:20:07.955Z,28.98
2018-04-14T00:20:41.828Z,34.30
2018-04-14T00:21:15.699Z,31.60
2018-04-14T00:21:49.562Z,30.17
2018-04-14T00:22:23.437Z,31.65
2018-04-14T00:22:57.553Z,31.15
2018-04-14T00:23:31.429Z,31.42
2018-04-14T00:24:05.310Z,32.10
2018-04-14T00:24:39.182Z,30.15
2018-04-14T00:25:13.063Z,34.67
2018-04-14T00:25:47.068Z,28.48
2018-04-14T00:26:20.937Z,30.52
2018-04-14T00:26:54.814Z,32.88
2018-04-14T00:27:28.713Z,30.08
2018-04-14T00:28:02.571Z,32.75
2018-04-14T00:28:36.441Z,34.33
2018-04-14T00:29:10.342Z,32.95
2018-04-14T00:29:44.208Z,30.50
2018-04-14T00:30:18.080Z,35.00
2018-04-14T00:30:52.325Z,30.27
2018-04-14T00:31:26.174Z,31.05
2018-04-14T00:32:00.059Z,32.35
2018-04-14T00:32:33.912Z,33.35
2018-04-14T00:33:07.977Z,35.47
2018-04-14T00:33:41.844Z,33.63
2018-04-14T00:34:15.721Z,32.13
2018-04-14T00:34:49.604Z,30.88
2018-04-14T00:35:23.475Z,33.55
2018-04-14T00:35:57.353Z,26.62
2018-04-14T00:36:31.208Z,33.08
2018-04-14T00:37:05.076Z,30.40
2018-04-14T00:37:38.945Z,31.83
2018-04-14T00:38:12.819Z,29.23
2018-04-14T00:38:46.696Z,33.08
2018-04-14T00:39:20.593Z,33.47
2018-04-14T00:39:54.460Z,34.25
2018-04-14T00:40:28.333Z,22.70
2018-04-14T00:41:02.207Z,29.63
2018-04-14T00:41:36.075Z,29.40
2018-04-14T00:42:09.934Z,28.30
2018-04-14T00:42:43.801Z,26.90
2018-04-14T00:43:17.664Z,29.12
2018-04-14T00:43:52.253Z,28.45
2018-04-14T00:44:26.142Z,26.17
2018-04-14T00:45:00.003Z,29.48
2018-04-14T00:45:33.879Z,24.45
2018-04-14T00:46:07.745Z,32.30
2018-04-14T00:46:41.772Z,32.95
2018-04-14T00:47:15.634Z,29.25
2018-04-14T00:47:49.549Z,30.73
2018-04-14T00:48:23.432Z,28.83
2018-04-14T00:48:57.315Z,30.73
2018-04-14T00:49:31.200Z,27.02
2018-04-14T00:50:05.391Z,32.78
2018-04-14T00:50:39.265Z,30.60
2018-04-14T00:51:13.131Z,29.77
2018-04-14T00:51:46.999Z,31.33
2018-04-14T00:52:21.783Z,27.87
2018-04-14T00:52:55.635Z,28.87
2018-04-14T00:53:35.416Z,28.35
2018-04-14T00:54:09.381Z,28.70
2018-04-14T00:54:43.262Z,30.12
2018-04-14T00:55:17.129Z,28.70
2018-04-14T00:55:50.999Z,28.62
2018-04-14T00:56:24.863Z,30.73
2018-04-14T00:56:58.720Z,29.92
2018-04-14T00:57:32.746Z,30.40
2018-04-14T00:58:06.603Z,30.33
2018-04-14T00:58:40.467Z,33.03
2018-04-14T00:59:14.436Z,28.08
2018-04-14T00:59:48.324Z,29.23
2018-04-14T01:00:22.179Z,30.20
2018-04-14T01:00:56.118Z,27.02
2018-04-14T01:01:29.985Z,29.00
2018-04-14T01:02:03.877Z,26.52
2018-04-14T01:02:37.731Z,29.05
2018-04-14T01:03:11.601Z,25.52
2018-04-14T01:03:45.695Z,29.02
2018-04-14T01:04:19.560Z,30.08
2018-04-14T01:04:53.439Z,30.83
2018-04-14T01:05:27.307Z,27.08
2018-04-14T01:06:01.169Z,28.23
2018-04-14T01:06:35.069Z,30.35
2018-04-14T01:07:08.959Z,32.47
2018-04-14T01:07:42.818Z,28.45
2018-04-14T01:08:16.680Z,26.55
2018-04-14T01:08:50.571Z,26.62
2018-04-14T01:09:24.441Z,29.45
2018-04-14T01:09:58.859Z,30.15
2018-04-14T01:10:32.728Z,28.67
2018-04-14T01:11:06.592Z,30.77
2018-04-14T01:11:40.466Z,26.87
2018-04-14T01:12:14.367Z,30.10
2018-04-14T01:12:48.228Z,29.35
2018-04-14T01:13:22.088Z,24.08
2018-04-14T01:13:55.946Z,32.45
2018-04-14T01:14:29.802Z,28.02
2018-04-14T01:15:03.706Z,24.63
2018-04-14T01:15:37.704Z,28.23
2018-04-14T01:16:12.466Z,28.75
2018-04-14T01:16:46.321Z,29.52
2018-04-14T01:17:20.992Z,27.33
2018-04-14T01:17:54.855Z,27.65
2018-04-14T01:18:29.508Z,27.27
2018-04-14T01:19:05.645Z,23.55
2018-04-14T01:19:41.947Z,27.55
2018-04-14T01:20:17.074Z,27.20
2018-04-14T01:20:53.865Z,27.37
2018-04-14T01:21:27.751Z,32.90
2018-04-14T01:22:02.400Z,27.05
2018-04-14T01:22:36.260Z,29.10
2018-04-14T01:23:11.395Z,27.30
2018-04-14T01:23:45.256Z,29.70
2018-04-14T01:24:20.061Z,23.85
2018-04-14T01:24:53.928Z,27.42
2018-04-14T01:25:27.817Z,25.80
2018-04-14T01:26:01.682Z,28.98
2018-04-14T01:26:36.411Z,25.65
2018-04-14T01:27:10.286Z,31.10
2018-04-14T01:27:44.153Z,27.98
2018-04-14T01:28:18.030Z,28.30
2018-04-14T01:28:51.909Z,26.58
2018-04-14T01:29:26.608Z,23.87
2018-04-14T01:30:00.485Z,25.75
2018-04-14T01:30:34.369Z,28.15
2018-04-14T01:31:08.353Z,28.52
2018-04-14T01:31:42.211Z,26.80
2018-04-14T01:32:16.083Z,25.30
2018-04-14T01:32:50.028Z,27.70
2018-04-14T01:33:23.889Z,30.65
2018-04-14T01:33:57.756Z,30.02
2018-04-14T01:34:31.617Z,24.87
2018-04-14T01:35:05.480Z,27.42
2018-04-14T01:35:39.369Z,26.20
2018-04-14T01:36:13.243Z,24.17
2018-04-14T01:36:47.107Z,25.05
2018-04-14T01:37:20.966Z,24.83
2018-04-14T01:37:54.819Z,26.90
2018-04-14T01:38:28.682Z,27.50
2018-04-14T01:39:02.670Z,27.20
2018-04-14T01:39:36.544Z,28.05
2018-04-14T01:40:10.407Z,29.20
2018-04-14T01:40:44.288Z,29.33
2018-04-14T01:41:18.159Z,25.42
2018-04-14T01:41:52.021Z,26.48
2018-04-14T01:42:25.877Z,28.70
2018-04-14T01:42:59.780Z,24.35
2018-04-14T01:43:33.659Z,24.65
2018-04-14T01:44:07.530Z,25.55
2018-04-14T01:44:41.396Z,26.20
2018-04-14T01:45:15.319Z,25.50
2018-04-14T01:45:49.194Z,28.98
2018-04-14T01:46:23.075Z,26.55
2018-04-14T01:46:56.940Z,24.95
2018-04-14T01:47:30.829Z,28.83
2018-04-14T01:48:04.704Z,26.27
2018-04-14T01:48:38.579Z,26.08
2018-04-14T01:49:12.456Z,25.85
2018-04-14T01:49:46.575Z,29.60
2018-04-14T01:50:20.478Z,27.25
2018-04-14T01:50:54.423Z,24.73
2018-04-14T01:51:28.296Z,26.23
2018-04-14T01:52:02.189Z,28.92
2018-04-14T01:52:36.064Z,25.83
2018-04-14T01:53:09.950Z,25.62
2018-04-14T01:53:43.807Z,27.20
2018-04-14T01:54:17.671Z,27.13
2018-04-14T01:54:51.550Z,25.62
2018-04-14T01:55:25.422Z,28.00
2018-04-14T01:55:59.307Z,25.17
2018-04-14T01:56:33.184Z,25.55
2018-04-14T01:57:07.059Z,29.73
2018-04-14T01:57:41.137Z,27.67
2018-04-14T01:58:15.008Z,26.30
2018-04-14T01:58:48.867Z,30.25
2018-04-14T01:59:22.727Z,28.80
2018-04-14T01:59:56.614Z,26.80
2018-04-14T02:00:30.501Z,33.35
2018-04-14T02:01:04.585Z,28.23
2018-04-14T02:01:38.471Z,27.50
2018-04-14T02:02:12.331Z,28.98
2018-04-14T02:02:46.193Z,26.65
2018-04-14T02:03:20.068Z,31.45
2018-04-14T02:03:53.943Z,24.83
2018-04-14T02:04:27.860Z,27.10
2018-04-14T02:05:01.739Z,30.05
2018-04-14T02:05:35.616Z,25.55
2018-04-14T02:06:09.505Z,30.80
2018-04-14T02:06:43.371Z,27.80
2018-04-14T02:07:17.539Z,26.00
2018-04-14T02:07:51.410Z,27.62
2018-04-14T02:08:25.284Z,30.15
2018-04-14T02:08:59.155Z,33.05
2018-04-14T02:09:33.033Z,31.58
2018-04-14T02:10:06.910Z,30.88
2018-04-14T02:10:40.772Z,27.80
2018-04-14T02:11:14.663Z,26.05
2018-04-14T02:11:48.516Z,26.40
2018-04-14T02:12:22.404Z,30.12
2018-04-14T02:12:56.264Z,29.50
2018-04-14T02:13:30.125Z,28.90
2018-04-14T02:14:04.018Z,29.77
2018-04-14T02:14:37.881Z,27.15
2018-04-14T02:15:11.752Z,26.60
2018-04-14T02:15:45.623Z,26.98
2018-04-14T02:16:19.494Z,27.83
2018-04-14T02:16:53.552Z,27.65
2018-04-14T02:17:27.426Z,29.17
2018-04-14T02:18:01.297Z,28.62
2018-04-14T02:18:35.162Z,26.92
2018-04-14T02:19:09.027Z,29.23
2018-04-14T02:19:42.914Z,29.37
2018-04-14T02:20:16.821Z,28.50
2018-04-14T02:20:50.688Z,27.95
2018-04-14T02:21:24.581Z,26.62
2018-04-14T02:21:58.612Z,26.20
2018-04-14T02:22:32.488Z,25.88
2018-04-14T02:23:06.356Z,27.58
2018-04-14T02:23:40.215Z,26.58
2018-04-14T02:24:14.110Z,29.00
2018-04-14T02:24:47.964Z,29.67
2018-04-14T02:25:21.835Z,27.50
2018-04-14T02:25:55.702Z,30.52
2018-04-14T02:26:29.596Z,29.70
2018-04-14T02:27:03.460Z,28.05
2018-04-14T02:27:37.327Z,30.62
2018-04-14T02:28:11.198Z,26.60
2018-04-14T02:28:45.064Z,29.35
2018-04-14T02:29:18.930Z,28.92
2018-04-14T02:29:52.817Z,29.83
2018-04-14T02:30:26.680Z,28.77
2018-04-14T02:31:00.830Z,29.27
2018-04-14T02:31:34.714Z,28.77
2018-04-14T02:32:08.579Z,30.52
2018-04-14T02:32:42.438Z,28.55
2018-04-14T02:33:16.717Z,29.67
2018-04-14T02:33:50.588Z,27.80
2018-04-14T02:34:24.443Z,32.70
2018-04-14T02:34:58.608Z,32.83
2018-04-14T02:35:32.478Z,32.00
2018-04-14T02:36:06.354Z,29.23
2018-04-14T02:36:40.253Z,30.60
2018-04-14T02:37:14.151Z,34.10
2018-04-14T02:37:48.015Z,31.17
2018-04-14T02:38:21.901Z,33.53
2018-04-14T02:38:55.769Z,34.95
2018-04-14T02:39:29.666Z,33.95
2018-04-14T02:40:03.538Z,40.70
2018-04-14T02:40:37.407Z,37.85
2018-04-14T02:41:11.287Z,34.08
2018-04-14T02:41:45.189Z,35.08
2018-04-14T02:42:19.051Z,32.75
2018-04-14T02:42:52.903Z,39.75
2018-04-14T02:43:26.767Z,40.42
2018-04-14T02:44:00.639Z,40.70
2018-04-14T02:44:34.508Z,40.63
2018-04-14T02:45:08.377Z,39.10
2018-04-14T02:45:42.252Z,39.05
2018-04-14T02:46:16.132Z,39.92
2018-04-14T02:46:50.032Z,37.78
2018-04-14T02:47:23.898Z,39.92
2018-04-14T02:47:57.748Z,42.40
2018-04-14T02:48:31.793Z,40.30
2018-04-14T02:49:05.656Z,42.72
2018-04-14T02:49:39.537Z,45.97
2018-04-14T02:50:13.478Z,41.03
2018-04-14T02:50:47.348Z,43.38
2018-04-14T02:51:21.234Z,47.25
2018-04-14T02:51:55.127Z,49.30
2018-04-14T02:52:28.983Z,49.88
2018-04-14T02:53:02.847Z,44.38
2018-04-14T02:53:36.712Z,45.55
2018-04-14T02:54:10.569Z,48.97
2018-04-14T02:54:44.428Z,47.25
2018-04-14T02:55:18.269Z,46.85
2018-04-14T02:55:52.124Z,45.67
2018-04-14T02:56:26.009Z,50.38
2018-04-14T02:56:59.897Z,45.45
2018-04-14T02:57:33.762Z,51.97
2018-04-14T02:58:07.631Z,52.38
2018-04-14T02:58:41.524Z,56.22
2018-04-14T02:59:15.403Z,41.88
2018-04-14T02:59:49.259Z,45.58
2018-04-14T03:00:23.131Z,49.50
2018-04-14T03:00:57.018Z,44.58
2018-04-14T03:01:30.893Z,42.58
2018-04-14T03:02:04.788Z,45.53
2018-04-14T03:02:38.657Z,51.85
2018-04-14T03:03:12.524Z,44.78
2018-04-14T03:03:46.398Z,50.50
2018-04-14T03:04:20.256Z,45.92
2018-04-14T03:04:54.125Z,45.67
2018-04-14T03:05:27.988Z,51.65
2018-04-14T03:06:01.865Z,48.58
2018-04-14T03:06:35.735Z,52.40
2018-04-14T03:07:09.595Z,52.97
2018-04-14T03:07:43.451Z,45.58
2018-04-14T03:08:17.612Z,46.92
2018-04-14T03:08:51.493Z,46.63
2018-04-14T03:09:25.369Z,46.58
2018-04-14T03:09:59.243Z,48.38
2018-04-14T03:10:33.113Z,47.62
2018-04-14T03:11:06.988Z,45.95
2018-04-14T03:11:40.873Z,41.35
2018-04-14T03:12:14.760Z,43.30
2018-04-14T03:12:48.774Z,44.03
2018-04-14T03:13:22.629Z,48.67
2018-04-14T03:13:56.511Z,51.10
2018-04-14T03:14:30.563Z,47.05
2018-04-14T03:15:04.436Z,47.17
2018-04-14T03:15:38.291Z,49.00
2018-04-14T03:16:12.154Z,48.72
2018-04-14T03:16:46.155Z,47.78
2018-04-14T03:17:20.144Z,46.28
2018-04-14T03:17:54.015Z,48.90
2018-04-14T03:18:27.896Z,48.45
2018-04-14T03:19:01.792Z,48.90
2018-04-14T03:19:35.677Z,52.08
2018-04-14T03:20:09.553Z,51.37
2018-04-14T03:20:43.430Z,49.38
2018-04-14T03:21:17.297Z,49.42
2018-04-14T03:21:51.152Z,51.50
2018-04-14T03:22:25.049Z,45.85
2018-04-14T03:22:58.911Z,51.67
2018-04-14T03:23:32.787Z,45.72
2018-04-14T03:24:06.678Z,47.25
2018-04-14T03:24:40.555Z,48.58
2018-04-14T03:25:14.472Z,52.50
2018-04-14T03:25:48.335Z,53.17
2018-04-14T03:26:22.208Z,49.03
2018-04-14T03:26:56.081Z,55.58
2018-04-14T03:27:29.976Z,56.53
2018-04-14T03:28:03.839Z,53.65
2018-04-14T03:28:37.703Z,51.67
2018-04-14T03:29:11.556Z,48.50
2018-04-14T03:29:45.426Z,46.90
2018-04-14T03:30:19.294Z,49.58
2018-04-14T03:30:53.184Z,47.13
2018-04-14T03:31:27.060Z,46.60
2018-04-14T03:32:00.936Z,45.88
2018-04-14T03:32:34.807Z,46.92
2018-04-14T03:33:08.669Z,45.53
2018-04-14T03:33:42.550Z,49.00
2018-04-14T03:34:16.411Z,47.88
2018-04-14T03:34:50.280Z,50.03
2018-04-14T03:35:24.144Z,48.00
2018-04-14T03:35:58.028Z,48.67
2018-04-14T03:36:31.883Z,45.47
2018-04-14T03:37:05.766Z,39.53
2018-04-14T03:37:39.636Z,45.95
2018-04-14T03:38:13.500Z,47.25
2018-04-14T03:38:47.364Z,43.25
2018-04-14T03:39:21.218Z,40.22
2018-04-14T03:39:55.085Z,41.60
2018-04-14T03:40:28.960Z,41.92
2018-04-14T03:41:02.827Z,37.65
2018-04-14T03:41:36.698Z,39.30
2018-04-14T03:42:10.554Z,40.25
2018-04-14T03:42:44.437Z,37.70
2018-04-14T03:43:18.402Z,40.03
2018-04-14T03:43:52.312Z,43.95
2018-04-14T03:44:26.194Z,36.17
2018-04-14T03:45:00.067Z,37.40
2018-04-14T03:45:33.945Z,42.40
2018-04-14T03:46:07.845Z,37.78
2018-04-14T03:46:41.704Z,39.85
2018-04-14T03:47:15.576Z,33.60
2018-04-14T03:47:49.464Z,34.55
2018-04-14T03:48:23.348Z,34.00
2018-04-14T03:48:57.214Z,37.75
2018-04-14T03:49:31.090Z,36.45
2018-04-14T03:50:04.948Z,37.92
2018-04-14T03:50:38.832Z,43.75
2018-04-14T03:51:12.700Z,36.92
2018-04-14T03:51:46.572Z,38.25
2018-04-14T03:52:20.523Z,38.55
2018-04-14T03:52:54.407Z,42.80
2018-04-14T03:53:28.264Z,44.45
2018-04-14T03:54:02.151Z,40.35
2018-04-14T03:54:36.023Z,40.60
2018-04-14T03:55:09.897Z,40.58
2018-04-14T03:55:43.789Z,43.22
2018-04-14T03:56:17.672Z,41.13
2018-04-14T03:56:51.766Z,44.67
2018-04-14T03:57:25.628Z,40.10
2018-04-14T03:57:59.519Z,43.63
2018-04-14T03:58:33.392Z,44.03
2018-04-14T03:59:07.266Z,45.65
2018-04-14T03:59:41.166Z,39.50
2018-04-14T04:00:15.026Z,39.28
2018-04-14T04:00:48.886Z,37.92
2018-04-14T04:01:22.744Z,41.75
2018-04-14T04:01:56.618Z,45.12
2018-04-14T04:02:30.475Z,39.72
2018-04-14T04:03:04.358Z,41.80
2018-04-14T04:03:38.217Z,41.80
2018-04-14T04:04:12.084Z,42.33
2018-04-14T04:04:45.946Z,44.05
2018-04-14T04:05:19.828Z,46.22
2018-04-14T04:05:53.703Z,46.90
2018-04-14T04:06:27.584Z,44.38
2018-04-14T04:07:01.481Z,40.95
2018-04-14T04:07:35.340Z,43.22
2018-04-14T04:08:09.211Z,48.17
2018-04-14T04:08:43.082Z,47.03
2018-04-14T04:09:16.962Z,45.63
2018-04-14T04:09:50.833Z,45.95
2018-04-14T04:10:24.687Z,50.88
2018-04-14T04:10:58.545Z,48.85
2018-04-14T04:11:32.401Z,53.58
2018-04-14T04:12:06.261Z,50.65
2018-04-14T04:12:40.128Z,49.95
2018-04-14T04:13:14.059Z,59.97
2018-04-14T04:13:47.928Z,55.88
2018-04-14T04:14:21.817Z,55.70
2018-04-14T04:14:55.714Z,51.67
2018-04-14T04:15:29.577Z,59.95
2018-04-14T04:16:03.454Z,65.68
2018-04-14T04:16:37.329Z,61.80
2018-04-14T04:17:11.217Z,64.85
2018-04-14T04:17:45.202Z,62.20
2018-04-14T04:18:24.795Z,64.03
2018-04-14T04:19:04.388Z,57.45
2018-04-14T04:19:44.042Z,60.55
2018-04-14T04:20:23.700Z,63.30
2018-04-14T04:21:03.334Z,63.65
2018-04-14T04:21:42.912Z,69.65
2018-04-14T04:22:22.574Z,74.57
2018-04-14T04:23:02.290Z,70.37
2018-04-14T04:23:41.969Z,78.05
2018-04-14T04:24:21.549Z,72.72
2018-04-14T04:25:01.171Z,73.78
2018-04-14T04:25:40.836Z,78.45
2018-04-14T04:26:14.712Z,67.72
2018-04-14T04:26:48.697Z,78.47
2018-04-14T04:27:22.565Z,75.22
2018-04-14T04:27:56.438Z,74.18
2018-04-14T04:28:30.325Z,72.15
2018-04-14T04:29:04.229Z,79.20
2018-04-14T04:29:38.160Z,76.47
2018-04-14T04:30:12.023Z,73.25
2018-04-14T04:30:45.885Z,77.43
2018-04-14T04:31:19.769Z,75.78
2018-04-14T04:31:53.669Z,76.55
2018-04-14T04:32:27.564Z,75.03
2018-04-14T04:33:01.448Z,81.55
2018-04-14T04:33:35.344Z,76.00
2018-04-14T04:34:09.247Z,85.60
2018-04-14T04:34:43.109Z,75.10
2018-04-14T04:35:16.965Z,81.82
2018-04-14T04:35:50.844Z,74.90
2018-04-14T04:36:24.723Z,78.87
2018-04-14T04:36:58.681Z,79.18
2018-04-14T04:37:32.611Z,72.00
2018-04-14T04:38:06.492Z,75.90
2018-04-14T04:38:40.363Z,81.40
2018-04-14T04:39:14.455Z,81.70
2018-04-14T04:39:48.322Z,76.12
2018-04-14T04:40:22.268Z,85.78
2018-04-14T04:40:56.135Z,77.45
2018-04-14T04:41:30.038Z,78.10
2018-04-14T04:42:03.905Z,82.25
2018-04-14T04:42:37.786Z,78.65
2018-04-14T04:43:11.678Z,76.37
2018-04-14T04:43:45.612Z,89.68
2018-04-14T04:44:19.657Z,88.35
2018-04-14T04:44:53.533Z,77.00
2018-04-14T04:45:27.403Z,79.35
2018-04-14T04:46:01.408Z,84.37
2018-04-14T04:46:35.271Z,82.10
2018-04-14T04:47:09.152Z,76.97
2018-04-14T04:47:43.097Z,81.82
2018-04-14T04:48:17.000Z,85.85
2018-04-14T04:48:51.040Z,76.25
2018-04-14T04:49:24.874Z,81.57
2018-04-14T04:49:59.323Z,81.20
2018-04-14T04:50:33.278Z,84.03
2018-04-14T04:51:07.159Z,78.32
2018-04-14T04:51:41.057Z,84.20
2018-04-14T04:52:15.015Z,83.55
2018-04-14T04:52:48.890Z,77.32
2018-04-14T04:53:22.752Z,82.30
2018-04-14T04:53:56.688Z,76.45
2018-04-14T04:54:30.580Z,77.12
2018-04-14T04:55:04.460Z,78.18
2018-04-14T04:55:38.329Z,68.35
2018-04-14T04:56:12.217Z,81.53
2018-04-14T04:56:46.142Z,67.30
2018-04-14T04:57:20.017Z,79.60
2018-04-14T04:57:53.883Z,61.75
2018-04-14T04:58:27.759Z,74.40
2018-04-14T04:59:01.655Z,73.93
2018-04-14T04:59:35.547Z,70.65
2018-04-14T05:00:09.453Z,68.72
2018-04-14T05:00:43.313Z,73.28
2018-04-14T05:01:17.188Z,77.37
2018-04-14T05:01:51.059Z,74.40
2018-04-14T05:02:24.944Z,63.92
2018-04-14T05:02:58.812Z,67.60
2018-04-14T05:03:32.690Z,65.55
2018-04-14T05:04:06.564Z,70.87
2018-04-14T05:04:40.462Z,68.05
2018-04-14T05:05:14.345Z,72.18
2018-04-14T05:05:48.225Z,71.68
2018-04-14T05:06:22.091Z,68.97
2018-04-14T05:06:55.975Z,72.87
2018-04-14T05:07:29.835Z,68.45
2018-04-14T05:08:03.709Z,68.47
2018-04-14T05:08:37.576Z,64.07
2018-04-14T05:09:11.462Z,64.90
2018-04-14T05:09:45.354Z,64.50
2018-04-14T05:10:19.227Z,73.30
2018-04-14T05:10:53.140Z,70.80
2018-04-14T05:11:27.056Z,65.65
2018-04-14T05:12:00.927Z,64.87
2018-04-14T05:12:34.799Z,66.05
2018-04-14T05:13:08.661Z,65.90
2018-04-14T05:13:42.541Z,72.93
2018-04-14T05:14:16.398Z,66.68
2018-04-14T05:14:50.300Z,70.70
2018-04-14T05:15:24.187Z,71.40
2018-04-14T05:15:58.067Z,64.43
2018-04-14T05:16:31.922Z,68.70
2018-04-14T05:17:05.818Z,67.15
2018-04-14T05:17:39.701Z,67.78
2018-04-14T05:18:13.591Z,63.47
2018-04-14T05:18:47.498Z,61.22
2018-04-14T05:19:21.368Z,67.47
2018-04-14T05:19:55.244Z,68.40
2018-04-14T05:20:29.122Z,64.80
2018-04-14T05:21:02.996Z,66.50
2018-04-14T05:21:36.852Z,68.65
2018-04-14T05:22:10.720Z,66.80
2018-04-14T05:22:44.607Z,70.12
2018-04-14T05:23:18.486Z,64.18
2018-04-14T05:23:52.351Z,60.65
2018-04-14T05:24:26.232Z,60.78
2018-04-14T05:25:00.117Z,64.95
2018-04-14T05:25:33.978Z,68.82
2018-04-14T05:26:07.845Z,60.45
2018-04-14T05:26:41.718Z,68.68
2018-04-14T05:27:15.607Z,57.40
2018-04-14T05:27:49.473Z,62.10
2018-04-14T05:28:23.345Z,63.85
2018-04-14T05:28:57.213Z,66.28
2018-04-14T05:29:31.062Z,61.08
2018-04-14T05:30:04.943Z,63.40
2018-04-14T05:30:38.796Z,65.82
2018-04-14T05:31:12.742Z,59.30
2018-04-14T05:31:46.618Z,62.90
2018-04-14T05:32:20.484Z,60.63
2018-04-14T05:32:54.356Z,67.85
2018-04-14T05:33:28.313Z,65.12
2018-04-14T05:34:02.207Z,65.60
2018-04-14T05:34:36.099Z,70.97
2018-04-14T05:35:10.704Z,64.45
2018-04-14T05:35:44.583Z,65.55
2018-04-14T05:36:18.462Z,73.47
2018-04-14T05:36:52.327Z,66.07
2018-04-14T05:37:26.280Z,65.97
2018-04-14T05:38:00.150Z,65.00
2018-04-14T05:38:34.012Z,66.65
2018-04-14T05:39:07.865Z,64.95
2018-04-14T05:39:41.763Z,67.68
2018-04-14T05:40:15.646Z,65.22
2018-04-14T05:40:49.527Z,63.03
2018-04-14T05:41:23.387Z,63.58
2018-04-14T05:41:57.249Z,70.53
2018-04-14T05:42:31.125Z,64.60
2018-04-14T05:43:05.006Z,61.85
2018-04-14T05:43:38.922Z,66.90
2018-04-14T05:44:12.835Z,66.53
2018-04-14T05:44:46.705Z,61.75
2018-04-14T05:45:20.583Z,66.78
2018-04-14T05:45:54.456Z,61.35
2018-04-14T05:46:28.333Z,61.72
2018-04-14T05:47:02.274Z,78.57
2018-04-14T05:47:36.147Z,60.92
2018-04-14T05:48:10.041Z,59.05
2018-04-14T05:48:43.899Z,57.53
2018-04-14T05:49:17.778Z,59.15
2018-04-14T05:49:51.671Z,64.80
2018-04-14T05:50:25.564Z,65.55
2018-04-14T05:50:59.501Z,69.70
2018-04-14T05:51:33.328Z,63.67
2018-04-14T05:52:07.207Z,63.47
2018-04-14T05:52:41.078Z,69.03
2018-04-14T05:53:14.993Z,81.18
2018-04-14T05:53:48.848Z,70.72
2018-04-14T05:54:22.727Z,64.85
2018-04-14T05:54:56.620Z,69.75
2018-04-14T05:55:30.512Z,69.75
2018-04-14T05:56:04.380Z,67.22
2018-04-14T05:56:38.260Z,72.25
2018-04-14T05:57:12.134Z,84.55
2018-04-14T05:57:45.998Z,67.15
2018-04-14T05:58:19.879Z,69.70
2018-04-14T05:58:53.764Z,65.43
2018-04-14T05:59:27.633Z,71.55
2018-04-14T06:00:01.508Z,75.85
2018-04-14T06:00:35.398Z,65.87
2018-04-14T06:01:09.262Z,69.57
2018-04-14T06:01:43.148Z,67.15
2018-04-14T06:02:17.014Z,75.05
2018-04-14T06:02:50.888Z,71.60
2018-04-14T06:03:24.756Z,74.18
2018-04-14T06:03:58.617Z,68.40
2018-04-14T06:04:32.502Z,71.32
2018-04-14T06:05:06.409Z,81.10
2018-04-14T06:05:40.302Z,74.57
2018-04-14T06:06:14.200Z,76.28
2018-04-14T06:06:48.076Z,73.82
2018-04-14T06:07:21.936Z,73.28
2018-04-14T06:07:55.803Z,76.35
2018-04-14T06:08:29.668Z,69.07
2018-04-14T06:09:03.544Z,81.78
2018-04-14T06:09:37.406Z,78.12
2018-04-14T06:10:11.283Z,84.65
2018-04-14T06:10:45.212Z,85.50
2018-04-14T06:11:19.081Z,79.40
2018-04-14T06:11:52.957Z,77.82
2018-04-14T06:12:26.827Z,80.82
2018-04-14T06:13:00.709Z,84.30
2018-04-14T06:13:34.570Z,81.10
2018-04-14T06:14:08.431Z,74.32
2018-04-14T06:14:42.321Z,72.55
2018-04-14T06:15:16.174Z,79.37
2018-04-14T06:15:50.049Z,78.32
2018-04-14T06:16:23.921Z,81.28
2018-04-14T06:16:57.805Z,82.07
2018-04-14T06:17:31.688Z,86.97
2018-04-14T06:18:05.556Z,87.18
2018-04-14T06:18:39.461Z,84.15
2018-04-14T06:19:13.415Z,87.25
2018-04-14T06:19:47.314Z,86.87
2018-04-14T06:20:21.175Z,83.35
2018-04-14T06:20:55.076Z,89.87
2018-04-14T06:21:28.956Z,92.43
2018-04-14T06:22:03.046Z,87.82
2018-04-14T06:22:36.865Z,84.28
2018-04-14T06:23:10.724Z,86.60
2018-04-14T06:23:44.592Z,86.63
2018-04-14T06:24:18.465Z,88.10
2018-04-14T06:24:52.332Z,95.78
2018-04-14T06:25:26.241Z,92.95
2018-04-14T06:26:00.149Z,93.97
2018-04-14T06:26:34.051Z,91.07
2018-04-14T06:27:07.921Z,97.65
2018-04-14T06:27:41.799Z,91.15
2018-04-14T06:28:15.692Z,85.10
2018-04-14T06:28:49.543Z,92.43
2018-04-14T06:29:23.450Z,101.40
2018-04-14T06:29:57.343Z,103.62
2018-04-14T06:30:31.216Z,97.45
2018-04-14T06:31:05.106Z,101.57
2018-04-14T06:31:38.976Z,100.57
2018-04-14T06:32:12.862Z,95.15
2018-04-14T06:32:46.736Z,99.62
2018-04-14T06:33:20.624Z,110.37
2018-04-14T06:33:54.519Z,104.78
2018-04-14T06:34:28.400Z,103.62
2018-04-14T06:35:02.284Z,100.25
2018-04-14T06:35:36.191Z,103.65
2018-04-14T06:36:10.147Z,105.28
2018-04-14T06:36:44.107Z,105.72
2018-04-14T06:37:17.971Z,107.37
2018-04-14T06:37:51.902Z,106.00
2018-04-14T06:38:25.780Z,108.47
2018-04-14T06:38:59.652Z,113.88
2018-04-14T06:39:33.641Z,115.75
2018-04-14T06:40:10.227Z,105.60
2018-04-14T06:40:44.090Z,114.97
2018-04-14T06:41:17.969Z,105.78
2018-04-14T06:41:51.840Z,105.97
2018-04-14T06:42:25.710Z,119.05
2018-04-14T06:42:59.583Z,108.82
2018-04-14T06:43:33.446Z,112.53
2018-04-14T06:44:07.363Z,102.75
2018-04-14T06:44:41.190Z,108.65
2018-04-14T06:45:15.105Z,98.65
2018-04-14T06:45:48.966Z,121.37
2018-04-14T06:46:22.864Z,110.18
2018-04-14T06:46:56.812Z,108.90
2018-04-14T06:47:30.751Z,107.40
2018-04-14T06:48:04.623Z,111.60
2018-04-14T06:48:38.515Z,107.70
2018-04-14T06:49:12.390Z,105.45
2018-04-14T06:49:46.394Z,121.30
2018-04-14T06:50:20.268Z,115.35
2018-04-14T06:50:54.159Z,110.00
2018-04-14T06:51:28.097Z,111.85
2018-04-14T06:52:01.973Z,110.03
2018-04-14T06:52:35.856Z,103.80
2018-04-14T06:53:09.725Z,114.03
2018-04-14T06:53:43.621Z,113.57
2018-04-14T06:54:17.529Z,113.32
2018-04-14T06:54:51.462Z,108.95
2018-04-14T06:55:25.347Z,117.60
2018-04-14T06:55:59.270Z,113.25
2018-04-14T06:56:33.204Z,108.75
2018-04-14T06:57:07.093Z,111.45
2018-04-14T06:57:41.833Z,108.90
2018-04-14T06:58:15.884Z,104.85
2018-04-14T06:58:49.773Z,112.32
2018-04-14T06:59:23.740Z,104.82
2018-04-14T06:59:57.627Z,104.20
2018-04-14T07:00:31.507Z,112.15
2018-04-14T07:01:05.383Z,112.97
2018-04-14T07:01:39.561Z,107.30
2018-04-14T07:02:13.461Z,109.20
2018-04-14T07:02:47.332Z,103.43
2018-04-14T07:03:21.196Z,109.10
2018-04-14T07:03:55.064Z,111.57
2018-04-14T07:04:30.329Z,108.12
2018-04-14T07:05:04.212Z,105.00
2018-04-14T07:05:38.081Z,115.15
2018-04-14T07:06:11.952Z,105.68
2018-04-14T07:06:46.036Z,110.12
2018-04-14T07:07:19.946Z,112.35
2018-04-14T07:07:53.811Z,112.60
2018-04-14T07:08:27.684Z,109.53
2018-04-14T07:09:01.558Z,111.75
2018-04-14T07:09:35.448Z,114.18
2018-04-14T07:10:09.339Z,105.37
2018-04-14T07:10:43.381Z,106.30
2018-04-14T07:11:17.348Z,115.70
2018-04-14T07:11:51.260Z,115.70
2018-04-14T07:12:25.169Z,110.55
2018-04-14T07:12:59.108Z,107.75
2018-04-14T07:13:33.026Z,111.12
2018-04-14T07:14:06.899Z,111.10
2018-04-14T07:14:40.796Z,120.50
2018-04-14T07:15:14.755Z,113.93
2018-04-14T07:15:48.663Z,118.15
2018-04-14T07:16:22.613Z,126.70
2018-04-14T07:16:56.526Z,107.05
2018-04-14T07:17:31.083Z,108.20